Etusivu
METAR-TAF:

METAR-TAF

Lentoasemat :

Kenneth Kaundan kansainvälinen lentoasema

Lusaka, Sambia

Leveyspiiri: 15-19-51S, Pituuspiiri: 028-27-09E, korkeus merenpinnasta: 1152 m

Tämänhetkinen sää

Tämä raportti tehtiin 2 tuntia ja 16 minuuttia sitten, kello 02.00 UTC
Tuuli 1 kn eri suunnista
Lämpötila 19°C
Kosteus 52%
Ilmanpaine 1017 hPa
Näkyvyys 10 km tai enemmän
ei pilviä alle 1500 m:ssä eikä cumulonimbus-pilviä

METAR: FLKK 210200Z VRB01KT CAVOK 19/09 Q1017

Aika: 06:16 (04:16 UTC)


TAF: puuttuu

Säähavainnot ja -ennusteet yli 4000 lentoasemalta (METAR- ja TAF-raportit).

Käytössä olevat sääasemat on merkitty karttaan keltaisilla ja punaisilla pisteillä.

Aseta hiiri pisteen päälle nähdäksesi sääaseman nimen.

Klikkaa sitten nähdäksesi säähavainnot ja -ennusteet.

Kartan vaihtaminen: klikkaa mustalla rastilla varustettuja vihreitä pisteitä, niin voit zoomata sisään; viivalla varustettua vihreää pistettä, niin voit zoomata ulos tai vihreitä nuolia, niin pääset viereisille kartoille.


METAR-TAF: